Alorton, IL

4:21 PM CST on December 18, 2014 (GMT -0600)
Saint Louis Downtown | Change Station
CLOSE
Current Station
Airport
Location: Cahokia,
Elevation: 410 ft
Nearby Weather Stations

Elev 410 ft 38.57 °N, 90.16 °W | Updated 28 minutes ago

Overcast
Overcast
35 °F
Feels Like 35 °F
N
0
Wind Variable Wind from North

Today
High -- | Low -- °F
--% Chance of Precip.
Yesterday
High -- | Low -- °F
Precip. -- in
7:13 AM 4:41 PM
Waning Crescent, 12% visible
Pressure 30.25 in
Visibility 7.0 miles
Clouds Mostly Cloudy 1800 ft
Overcast 6500 ft
Dew Point 30 °F
Humidity 82%
Rainfall 0.00 in
Snow Depth Not available.
UV 0 out of 12
Pollen .50 out of 12
Air Quality Not available.
Flu Activity Not available.
METAR KCPS 182153Z 00000KT 7SM BKN018 OVC065 02/M01 A3024 RMK AO2 SLP243 T00171011

More Conditions Fewer Conditions

Pressure 30.25 in
Visibility 7.0 miles
Clouds Mostly Cloudy 1800 ft
Overcast 6500 ft
Dew Point 30 °F
Humidity 82%
Rainfall 0.00 in
Snow Depth Not available.
UV 0 out of 12
Pollen .50 out of 12
Air Quality Not available.
Flu Activity Not available.
METAR KCPS 182153Z 00000KT 7SM BKN018 OVC065 02/M01 A3024 RMK AO2 SLP243 T00171011

More Conditions Fewer Conditions

10-Day Weather Forecast

Almanac

Astronomy

Dec. 18, 2014 Rise Set
Actual Time
Civil Twilight
Nautical Twilight
Astronomical Twilight
Moon
Length of Visible Light
Length of Day
Tomorrow will be .
, % of the Moon is Illuminated

Today's Extremes

State Highs State Lows

Community

WunderPhotos

Upload Photos

1,779,010 photos uploaded!

WunderBlogs® & News

Nearby

Air Quality

  Air Quality AQ Index Pollutant
Not available.

Snow Depth

Station Depth Elevation

Earthquake Activity

City Distance Mag. Time & Date
Minimum magnitude displayed is 2.5.

Coastal Water Temperatures

Place Temperature

Nearby Weather Stations